Time;durP1;ratioP1;P1;durP2;ratioP2;P2;SDS_P1;SDS_P2;PMS_P1;PMS_P2;Temp;Humidity;BMP_temperature;BMP_pressure;BME280_temperature;BME280_humidity;BME280_pressure;Samples;Min_cycle;Max_cycle;Signal;HPM_P1;HPM_P2
2022/03/23 00:00:32;;;;;;;6.68;3.63;;;;;;;-148.16;100.00;58328.31;5031033;28;20064;-60
2022/03/23 00:03:17;;;;;;;6.90;3.63;;;;;;;-148.16;100.00;58328.31;5030754;28;20041;-60
2022/03/23 00:06:04;;;;;;;5.93;3.22;;;;;;;-148.16;100.00;58328.31;5030573;28;20057;-60
2022/03/23 00:08:50;;;;;;;6.53;2.85;;;;;;;-148.16;100.00;58328.31;5030896;28;20045;-59
2022/03/23 00:11:35;;;;;;;5.70;2.97;;;;;;;-148.16;100.00;58328.31;5031520;28;20041;-60
2022/03/23 00:14:20;;;;;;;6.68;3.58;;;;;;;-148.16;100.00;58328.31;5030187;28;20064;-60
2022/03/23 00:17:05;;;;;;;5.43;3.25;;;;;;;-148.16;100.00;58328.31;5030036;28;20033;-59
2022/03/23 00:19:49;;;;;;;6.65;3.22;;;;;;;-148.16;100.00;58328.31;5031659;28;20076;-59
2022/03/23 00:22:35;;;;;;;5.70;3.00;;;;;;;-148.16;100.00;58328.31;5031479;28;20151;-59
2022/03/23 00:25:20;;;;;;;6.28;3.65;;;;;;;-148.16;100.00;58328.31;5030429;28;20435;-59
2022/03/23 00:28:07;;;;;;;5.72;2.67;;;;;;;-148.16;100.00;58328.31;5031485;28;20448;-59
2022/03/23 00:30:53;;;;;;;6.80;3.30;;;;;;;-148.16;100.00;58328.31;5029357;28;20041;-58
2022/03/23 00:33:38;;;;;;;9.27;4.05;;;;;;;-148.16;100.00;58328.31;5031579;28;20761;-59
2022/03/23 00:36:24;;;;;;;6.93;3.50;;;;;;;-148.16;100.00;58328.31;5031317;28;20045;-60
2022/03/23 00:39:09;;;;;;;9.50;3.58;;;;;;;-148.16;100.00;58328.31;5016438;28;20075;-60
2022/03/23 00:41:53;;;;;;;6.50;3.72;;;;;;;-148.16;100.00;58328.31;5031234;28;20477;-60
2022/03/23 00:44:39;;;;;;;6.63;3.70;;;;;;;-148.16;100.00;58328.31;5031222;28;20046;-61
2022/03/23 00:47:24;;;;;;;6.07;3.70;;;;;;;-148.16;100.00;58328.31;5030151;28;20042;-59
2022/03/23 00:50:09;;;;;;;9.65;3.72;;;;;;;-148.16;100.00;58328.31;5030188;28;20056;-58
2022/03/23 00:52:54;;;;;;;8.57;3.72;;;;;;;-148.16;100.00;58328.31;5029999;28;20045;-58
2022/03/23 00:55:41;;;;;;;6.75;3.70;;;;;;;-148.16;100.00;58328.31;5029938;28;20045;-59
2022/03/23 00:58:28;;;;;;;5.82;3.63;;;;;;;-148.16;100.00;58328.31;5030410;28;20140;-61
2022/03/23 01:01:13;;;;;;;6.55;4.13;;;;;;;-148.16;100.00;58328.31;5016827;28;20481;-59
2022/03/23 01:03:58;;;;;;;6.05;3.45;;;;;;;-148.16;100.00;58328.31;5030822;28;20038;-61
2022/03/23 01:06:47;;;;;;;6.57;3.63;;;;;;;-148.16;100.00;58328.31;5032279;28;20103;-58
2022/03/23 01:09:31;;;;;;;6.75;3.78;;;;;;;-148.16;100.00;58328.31;5029965;28;20071;-60
2022/03/23 01:12:17;;;;;;;6.65;3.63;;;;;;;-148.16;100.00;58328.31;5018165;28;20049;-60
2022/03/23 01:15:02;;;;;;;7.75;4.22;;;;;;;-148.16;100.00;58328.31;5030906;28;20774;-60
2022/03/23 01:17:49;;;;;;;8.13;4.75;;;;;;;-148.16;100.00;58328.31;5029852;28;20113;-60
2022/03/23 01:20:36;;;;;;;7.03;4.53;;;;;;;-148.16;100.00;58328.31;5016086;28;20046;-59
2022/03/23 01:23:21;;;;;;;5.78;4.03;;;;;;;-148.16;100.00;58328.31;5029898;28;20051;-60
2022/03/23 01:26:06;;;;;;;9.73;4.70;;;;;;;-148.16;100.00;58328.31;5030051;28;20049;-59
2022/03/23 01:28:52;;;;;;;7.38;4.63;;;;;;;-148.16;100.00;58328.31;5029948;28;20049;-59
2022/03/23 01:31:38;;;;;;;6.00;3.45;;;;;;;-148.16;100.00;58328.31;5029767;28;20080;-59
2022/03/23 01:34:23;;;;;;;9.13;4.35;;;;;;;-148.16;100.00;58328.31;5030941;28;20049;-59
2022/03/23 01:37:08;;;;;;;6.70;4.47;;;;;;;-148.16;100.00;58328.31;5029728;28;20037;-62
2022/03/23 01:39:53;;;;;;;6.90;3.90;;;;;;;-148.16;100.00;58328.31;5015798;28;20409;-60
2022/03/23 01:42:40;;;;;;;7.72;5.00;;;;;;;-148.16;100.00;58328.31;5032857;28;20045;-61
2022/03/23 01:45:25;;;;;;;9.77;5.53;;;;;;;-148.16;100.00;58328.31;5033076;28;20127;-60
2022/03/23 01:48:11;;;;;;;6.70;4.43;;;;;;;-148.16;100.00;58328.31;5032690;28;20056;-59
2022/03/23 01:50:56;;;;;;;9.93;5.00;;;;;;;-148.16;100.00;58328.31;5014374;28;20038;-60
2022/03/23 01:53:41;;;;;;;8.25;4.63;;;;;;;-148.16;100.00;58328.31;5027026;28;20096;-60
2022/03/23 01:56:27;;;;;;;7.82;4.50;;;;;;;-148.16;100.00;58328.31;5041003;28;20046;-60
2022/03/23 01:59:12;;;;;;;6.15;4.22;;;;;;;-148.16;100.00;58328.31;5016414;28;20124;-60
2022/03/23 02:01:57;;;;;;;7.03;4.65;;;;;;;-148.16;100.00;58328.31;5033872;28;20046;-59
2022/03/23 02:04:43;;;;;;;8.27;5.10;;;;;;;-148.16;100.00;58328.31;5046792;28;20069;-60
2022/03/23 02:07:30;;;;;;;6.35;4.63;;;;;;;-148.16;100.00;58328.31;5061396;28;20049;-61
2022/03/23 02:10:15;;;;;;;6.25;3.97;;;;;;;-148.16;100.00;58328.31;5032358;28;20037;-61
2022/03/23 02:13:11;;;;;;;7.07;4.35;;;;;;;-148.16;100.00;58328.31;5032516;28;20061;-59
2022/03/23 02:15:58;;;;;;;6.40;4.00;;;;;;;-148.16;100.00;58328.31;5032628;28;20042;-59
2022/03/23 02:18:46;;;;;;;10.50;4.95;;;;;;;-148.16;100.00;58328.31;5048873;28;20056;-60
2022/03/23 02:21:34;;;;;;;9.70;5.57;;;;;;;-148.16;100.00;58328.31;5032673;28;20075;-59
2022/03/23 02:24:28;;;;;;;7.20;4.20;;;;;;;-148.16;100.00;58328.31;5046763;28;20115;-60
2022/03/23 02:27:15;;;;;;;8.73;4.43;;;;;;;-148.16;100.00;58328.31;5033792;28;20394;-59
2022/03/23 02:29:59;;;;;;;7.20;4.47;;;;;;;-148.16;100.00;58328.31;5033664;28;20045;-60
2022/03/23 02:32:45;;;;;;;8.05;4.25;;;;;;;-148.16;100.00;58328.31;5033074;28;20049;-61
2022/03/23 02:35:30;;;;;;;6.90;4.07;;;;;;;-148.16;100.00;58328.31;5032530;28;20532;-62
2022/03/23 02:38:16;;;;;;;12.68;5.00;;;;;;;-148.16;100.00;58328.31;5033081;28;20087;-59
2022/03/23 02:41:01;;;;;;;8.63;4.75;;;;;;;-148.16;100.00;58328.31;5033463;28;20081;-58
2022/03/23 02:43:45;;;;;;;7.32;4.25;;;;;;;-148.16;100.00;58328.31;5032634;28;20038;-60
2022/03/23 02:46:35;;;;;;;8.82;4.50;;;;;;;-148.16;100.00;58328.31;5046204;28;20054;-63
2022/03/23 02:49:20;;;;;;;8.48;4.80;;;;;;;-148.16;100.00;58328.31;5060274;28;20095;-60
2022/03/23 02:52:05;;;;;;;10.85;5.78;;;;;;;-148.16;100.00;58328.31;5046002;28;20060;-60
2022/03/23 03:04:18;;;;;;;8.20;4.00;;;;;;;-148.16;100.00;58328.31;5032961;28;20045;-59
2022/03/23 03:07:03;;;;;;;7.43;4.15;;;;;;;-148.16;100.00;58328.31;5034195;28;20049;-59
2022/03/23 03:09:48;;;;;;;7.72;4.32;;;;;;;-148.16;100.00;58328.31;5032643;28;20048;-59
2022/03/23 03:12:33;;;;;;;7.95;4.32;;;;;;;-148.16;100.00;58328.31;5031579;28;20542;-60
2022/03/23 03:15:20;;;;;;;7.28;4.28;;;;;;;-148.16;100.00;58328.31;5033746;28;20056;-63
2022/03/23 03:18:04;;;;;;;8.50;4.78;;;;;;;-148.16;100.00;58328.31;5034607;28;20405;-59
2022/03/23 03:20:49;;;;;;;7.28;4.30;;;;;;;-148.16;100.00;58328.31;5019653;28;20073;-60
2022/03/23 03:23:36;;;;;;;6.88;4.10;;;;;;;-148.16;100.00;58328.31;5018055;28;20041;-59
2022/03/23 03:26:21;;;;;;;6.35;4.20;;;;;;;-148.16;100.00;58328.31;5017741;28;20041;-58
2022/03/23 03:29:06;;;;;;;9.20;4.38;;;;;;;-148.16;100.00;58328.31;5032558;28;20048;-59
2022/03/23 03:31:52;;;;;;;8.68;4.90;;;;;;;-148.16;100.00;58328.31;5031438;28;20049;-59
2022/03/23 03:34:37;;;;;;;6.50;4.22;;;;;;;-148.16;100.00;58328.31;5031755;28;20053;-59
2022/03/23 03:37:22;;;;;;;8.65;4.80;;;;;;;-148.16;100.00;58328.31;5032266;28;20045;-58
2022/03/23 03:40:09;;;;;;;7.88;4.78;;;;;;;-148.16;100.00;58328.31;5031161;28;20045;-58
2022/03/23 03:42:55;;;;;;;7.47;4.05;;;;;;;-148.16;100.00;58328.31;5031887;28;20037;-61
2022/03/23 03:45:45;;;;;;;7.10;4.50;;;;;;;-148.16;100.00;58328.31;5031768;28;20580;-60
2022/03/23 03:48:30;;;;;;;7.85;4.40;;;;;;;-148.16;100.00;58328.31;5030752;28;20056;-58
2022/03/23 03:51:14;;;;;;;8.05;4.80;;;;;;;-148.16;100.00;58328.31;5031257;28;20053;-62
2022/03/23 03:53:59;;;;;;;9.07;4.30;;;;;;;-148.16;100.00;58328.31;5024506;28;20041;-61
2022/03/23 03:56:44;;;;;;;8.52;4.75;;;;;;;-148.16;100.00;58328.31;5031557;28;20489;-60
2022/03/23 03:59:28;;;;;;;7.10;4.20;;;;;;;-148.16;100.00;58328.31;5031715;28;20042;-60
2022/03/23 04:02:14;;;;;;;10.75;4.70;;;;;;;-148.16;100.00;58328.31;5032953;28;20052;-60
2022/03/23 04:05:00;;;;;;;7.13;4.68;;;;;;;-148.16;100.00;58328.31;5046022;28;20098;-62
2022/03/23 04:07:44;;;;;;;7.85;4.63;;;;;;;-148.16;100.00;58328.31;5027766;28;20056;-59
2022/03/23 04:10:30;;;;;;;7.82;4.18;;;;;;;-148.16;100.00;58328.31;5028121;28;20038;-67
2022/03/23 04:13:15;;;;;;;9.70;4.75;;;;;;;-148.16;100.00;58328.31;5064593;28;20045;-61
2022/03/23 04:16:02;;;;;;;15.38;5.38;;;;;;;-148.16;100.00;58328.31;5028480;28;20416;-61
2022/03/23 04:18:48;;;;;;;9.20;4.53;;;;;;;-148.16;100.00;58328.31;5031046;28;20124;-63
2022/03/23 04:21:35;;;;;;;8.75;4.32;;;;;;;-148.16;100.00;58328.31;5034646;28;20056;-59
2022/03/23 04:24:19;;;;;;;10.10;5.40;;;;;;;-148.16;100.00;58328.31;5030556;28;20045;-58
2022/03/23 04:27:05;;;;;;;10.02;5.40;;;;;;;-148.16;100.00;58328.31;5032878;28;20049;-60
2022/03/23 04:29:49;;;;;;;7.68;4.80;;;;;;;-148.16;100.00;58328.31;5031955;28;20045;-60
2022/03/23 04:32:34;;;;;;;8.60;4.80;;;;;;;-148.16;100.00;58328.31;5033694;28;20056;-59
2022/03/23 04:35:24;;;;;;;9.85;4.88;;;;;;;-148.16;100.00;58328.31;5034613;28;20116;-58
2022/03/23 04:38:08;;;;;;;8.75;5.38;;;;;;;-148.16;100.00;58328.31;5031572;28;20393;-60
2022/03/23 04:40:54;;;;;;;10.30;4.97;;;;;;;-148.16;100.00;58328.31;5016505;28;20068;-59
2022/03/23 04:43:38;;;;;;;12.27;5.32;;;;;;;-148.16;100.00;58328.31;5031496;28;20079;-59
2022/03/23 04:46:23;;;;;;;11.63;5.00;;;;;;;-148.16;100.00;58328.31;5016568;28;20045;-60
2022/03/23 04:49:08;;;;;;;9.23;4.50;;;;;;;-148.16;100.00;58328.31;5002197;28;20052;-61
2022/03/23 04:51:54;;;;;;;9.38;4.45;;;;;;;-148.16;100.00;58328.31;5031159;28;20072;-59
2022/03/23 04:54:39;;;;;;;9.50;4.60;;;;;;;-148.16;100.00;58328.31;5031135;28;20095;-61
2022/03/23 04:57:26;;;;;;;7.95;4.50;;;;;;;-148.16;100.00;58328.31;5031107;28;20046;-60
2022/03/23 05:00:15;;;;;;;9.40;4.70;;;;;;;-148.16;100.00;58328.31;5031484;28;20057;-60
2022/03/23 05:03:01;;;;;;;8.52;4.28;;;;;;;-148.16;100.00;58328.31;5030849;28;20053;-59
2022/03/23 05:05:46;;;;;;;9.35;4.40;;;;;;;-148.16;100.00;58328.31;5033015;28;20053;-59
2022/03/23 05:08:31;;;;;;;8.52;3.92;;;;;;;-148.16;100.00;58328.31;5031118;28;20053;-60
2022/03/23 05:11:16;;;;;;;8.23;4.90;;;;;;;-148.16;100.00;58328.31;5027886;28;20041;-60
2022/03/23 05:14:00;;;;;;;7.80;4.88;;;;;;;-148.16;100.00;58328.31;5031938;28;20123;-60
2022/03/23 05:16:46;;;;;;;11.05;5.78;;;;;;;-148.16;100.00;58328.31;5050002;28;20404;-59
2022/03/23 05:19:31;;;;;;;8.88;5.15;;;;;;;-148.16;100.00;58328.31;5054440;28;20122;-60
2022/03/23 05:22:16;;;;;;;8.75;4.85;;;;;;;-148.16;100.00;58328.31;5053649;28;20369;-60
2022/03/23 05:25:03;;;;;;;9.27;5.50;;;;;;;-148.16;100.00;58328.31;5054572;28;20045;-60
2022/03/23 05:27:48;;;;;;;13.32;5.57;;;;;;;-148.16;100.00;58328.31;5054614;28;20115;-62
2022/03/23 05:30:34;;;;;;;13.50;7.90;;;;;;;-148.16;100.00;58328.31;5054644;28;20056;-61
2022/03/23 05:33:19;;;;;;;14.10;8.25;;;;;;;-148.16;100.00;58328.31;5028490;28;20053;-62
2022/03/23 05:36:04;;;;;;;13.40;6.70;;;;;;;-148.16;100.00;58328.31;5005364;28;20045;-64
2022/03/23 05:38:48;;;;;;;16.27;9.13;;;;;;;-148.16;100.00;58328.31;5034316;28;20049;-63
2022/03/23 05:41:33;;;;;;;17.00;9.10;;;;;;;-148.16;100.00;58328.31;5038556;28;20114;-62
2022/03/23 05:44:18;;;;;;;15.60;8.63;;;;;;;-148.16;100.00;58328.31;5047605;28;20095;-63
2022/03/23 05:47:04;;;;;;;17.20;9.80;;;;;;;-148.16;100.00;58328.31;5019378;28;20709;-60
2022/03/23 05:49:49;;;;;;;15.95;9.30;;;;;;;-148.16;100.00;58328.31;5038392;28;20064;-60
2022/03/23 05:52:34;;;;;;;18.25;9.38;;;;;;;-148.16;100.00;58328.31;5060930;28;20049;-61
2022/03/23 05:55:20;;;;;;;17.20;9.98;;;;;;;-148.16;100.00;58328.31;5074057;28;20086;-63
2022/03/23 05:58:04;;;;;;;17.48;9.88;;;;;;;-148.16;100.00;58328.31;5054172;28;20049;-62
2022/03/23 06:00:49;;;;;;;14.88;9.18;;;;;;;-148.16;100.00;58328.31;5053690;28;20496;-62
2022/03/23 06:03:35;;;;;;;18.52;9.13;;;;;;;-148.16;100.00;58328.31;5064349;28;20442;-62
2022/03/23 06:06:20;;;;;;;16.50;9.40;;;;;;;-148.16;100.00;58328.31;5051311;28;20048;-61
2022/03/23 06:09:05;;;;;;;18.20;9.77;;;;;;;-148.16;100.00;58328.31;5066695;28;20040;-61
2022/03/23 06:11:51;;;;;;;17.38;10.05;;;;;;;-148.16;100.00;58328.31;5053790;28;20496;-61
2022/03/23 06:14:36;;;;;;;17.90;9.52;;;;;;;-148.16;100.00;58328.31;5052895;28;20060;-62
2022/03/23 06:17:20;;;;;;;22.55;11.27;;;;;;;-148.16;100.00;58328.31;5053495;28;20045;-62
2022/03/23 06:20:07;;;;;;;19.60;10.18;;;;;;;-148.16;100.00;58328.31;5052515;28;20050;-62
2022/03/23 06:22:52;;;;;;;14.98;8.70;;;;;;;-148.16;100.00;58328.31;5024101;28;20609;-61
2022/03/23 06:25:36;;;;;;;16.63;8.43;;;;;;;-148.16;100.00;58328.31;5053517;28;20492;-61
2022/03/23 06:28:23;;;;;;;15.77;8.23;;;;;;;-148.16;100.00;58328.31;5079199;28;20079;-61
2022/03/23 06:31:08;;;;;;;15.23;8.23;;;;;;;-148.16;100.00;58328.31;5066479;28;20072;-63
2022/03/23 06:33:54;;;;;;;17.00;8.90;;;;;;;-148.16;100.00;58328.31;5066126;28;20037;-62
2022/03/23 06:36:39;;;;;;;14.52;7.70;;;;;;;-148.16;100.00;58328.31;5052064;28;20402;-62
2022/03/23 06:39:25;;;;;;;13.30;7.32;;;;;;;-148.16;100.00;58328.31;5075891;28;20036;-62
2022/03/23 06:42:10;;;;;;;13.70;7.35;;;;;;;-148.16;100.00;58328.31;5031574;28;20037;-60
2022/03/23 06:44:55;;;;;;;11.15;6.65;;;;;;;-148.16;100.00;58328.31;5032540;28;20037;-63
2022/03/23 06:47:40;;;;;;;12.32;6.82;;;;;;;-148.16;100.00;58328.31;5001437;28;20068;-62
2022/03/23 06:50:25;;;;;;;13.75;7.85;;;;;;;-148.16;100.00;58328.31;5032071;28;20092;-63
2022/03/23 06:53:09;;;;;;;17.80;9.52;;;;;;;-148.16;100.00;58328.31;4998498;28;20038;-63
2022/03/23 06:55:54;;;;;;;17.02;9.07;;;;;;;-148.16;100.00;58328.31;5028867;28;20464;-63
2022/03/23 06:58:39;;;;;;;17.92;8.88;;;;;;;-148.16;100.00;58328.31;5042172;28;20048;-61
2022/03/23 07:01:25;;;;;;;14.90;8.50;;;;;;;-148.16;100.00;58328.31;5065787;28;20072;-63
2022/03/23 07:04:10;;;;;;;17.23;8.60;;;;;;;-148.16;100.00;58328.31;5045140;28;20045;-63
2022/03/23 07:06:55;;;;;;;25.83;12.48;;;;;;;-148.16;100.00;58328.31;5031710;28;20045;-63
2022/03/23 07:09:41;;;;;;;17.20;8.73;;;;;;;-148.16;100.00;58328.31;5031790;28;20061;-63
2022/03/23 07:12:25;;;;;;;19.55;9.13;;;;;;;-148.16;100.00;58328.31;5044763;28;20412;-62
2022/03/23 07:15:10;;;;;;;15.20;8.20;;;;;;;-148.16;100.00;58328.31;5052789;28;20451;-62
2022/03/23 07:17:55;;;;;;;18.30;8.50;;;;;;;-148.16;100.00;58328.31;5051496;28;20041;-62
2022/03/23 07:20:40;;;;;;;19.75;9.38;;;;;;;-148.16;100.00;58328.31;5051546;28;20049;-62
2022/03/23 07:23:25;;;;;;;14.48;7.75;;;;;;;-148.16;100.00;58328.31;5085153;28;20053;-62
2022/03/23 07:26:10;;;;;;;16.67;8.40;;;;;;;-148.16;100.00;58328.31;5065022;28;20043;-62
2022/03/23 07:28:56;;;;;;;18.02;9.27;;;;;;;-148.16;100.00;58328.31;5079252;28;20044;-62
2022/03/23 07:31:40;;;;;;;15.10;8.68;;;;;;;-148.16;100.00;58328.31;5057518;28;20045;-61
2022/03/23 07:34:25;;;;;;;14.18;8.07;;;;;;;-148.16;100.00;58328.31;5032537;28;20068;-62
2022/03/23 07:37:10;;;;;;;16.02;8.60;;;;;;;-148.16;100.00;58328.31;5032428;28;20053;-61
2022/03/23 07:39:54;;;;;;;15.00;8.02;;;;;;;-148.16;100.00;58328.31;5032048;28;20076;-61
2022/03/23 07:42:40;;;;;;;14.00;7.05;;;;;;;-148.16;100.00;58328.31;5032226;28;20041;-62
2022/03/23 07:45:25;;;;;;;13.48;7.15;;;;;;;-148.16;100.00;58328.31;5045415;28;20046;-62
2022/03/23 07:48:10;;;;;;;11.77;6.90;;;;;;;-148.16;100.00;58328.31;5032399;28;20417;-61
2022/03/23 07:50:55;;;;;;;14.00;8.02;;;;;;;-148.16;100.00;58328.31;5032575;28;20049;-63
2022/03/23 07:53:39;;;;;;;10.02;5.88;;;;;;;-148.16;100.00;58328.31;5045211;28;20115;-62
2022/03/23 07:56:24;;;;;;;10.88;6.40;;;;;;;-148.16;100.00;58328.31;5032836;28;20377;-62
2022/03/23 07:59:09;;;;;;;9.32;5.50;;;;;;;-148.16;100.00;58328.31;5032350;28;20045;-62
2022/03/23 08:01:55;;;;;;;10.57;5.80;;;;;;;-148.16;100.00;58328.31;5032119;28;20037;-62
2022/03/23 08:04:41;;;;;;;12.27;6.47;;;;;;;-148.16;100.00;58328.31;5031099;28;20052;-63
2022/03/23 08:07:26;;;;;;;11.13;5.97;;;;;;;-148.16;100.00;58328.31;5032208;28;20050;-63
2022/03/23 08:10:11;;;;;;;9.05;5.53;;;;;;;-148.16;100.00;58328.31;5032593;28;20129;-62
2022/03/23 08:12:56;;;;;;;12.48;5.95;;;;;;;-148.16;100.00;58328.31;5015228;28;20156;-64
2022/03/23 08:15:43;;;;;;;16.70;7.10;;;;;;;-148.16;100.00;58328.31;5010981;28;20125;-63
2022/03/23 08:18:30;;;;;;;10.55;6.22;;;;;;;-148.16;100.00;58328.31;5011102;28;20492;-60
2022/03/23 08:21:17;;;;;;;17.00;6.95;;;;;;;-148.16;100.00;58328.31;5013684;28;20034;-63
2022/03/23 08:24:03;;;;;;;12.50;7.00;;;;;;;-148.16;100.00;58328.31;5011865;28;20053;-60
2022/03/23 08:26:48;;;;;;;14.40;7.68;;;;;;;-148.16;100.00;58328.31;5012726;28;20038;-61
2022/03/23 08:29:33;;;;;;;15.02;7.03;;;;;;;-148.16;100.00;58328.31;5011486;28;20381;-61
2022/03/23 08:32:18;;;;;;;11.18;6.40;;;;;;;-148.16;100.00;58328.31;5010703;28;20056;-60
2022/03/23 08:35:03;;;;;;;12.35;6.70;;;;;;;-148.16;100.00;58328.31;5038320;28;20069;-62
2022/03/23 08:37:48;;;;;;;11.57;6.40;;;;;;;-148.16;100.00;58328.31;5011440;28;20042;-61
2022/03/23 08:40:34;;;;;;;12.93;5.95;;;;;;;-148.16;100.00;58328.31;5011471;28;20050;-63
2022/03/23 08:43:19;;;;;;;11.90;6.25;;;;;;;-148.16;100.00;58328.31;5010561;28;20046;-60
2022/03/23 08:46:04;;;;;;;10.18;6.78;;;;;;;-148.16;100.00;58328.31;5011284;28;20069;-60
2022/03/23 08:48:49;;;;;;;12.18;6.38;;;;;;;-148.16;100.00;58328.31;5016164;28;20041;-62
2022/03/23 08:51:34;;;;;;;12.38;6.18;;;;;;;-148.16;100.00;58328.31;5044108;28;20476;-63
2022/03/23 08:54:19;;;;;;;12.10;6.45;;;;;;;-148.16;100.00;58328.31;5049734;28;20049;-64
2022/03/23 08:57:04;;;;;;;9.82;6.72;;;;;;;-148.16;100.00;58328.31;5050619;28;20045;-64
2022/03/23 08:59:49;;;;;;;10.27;6.68;;;;;;;-148.16;100.00;58328.31;5048648;28;20140;-65
2022/03/23 09:02:34;;;;;;;8.65;5.38;;;;;;;-148.16;100.00;58328.31;5034624;28;20130;-65
2022/03/23 09:05:25;;;;;;;10.15;6.53;;;;;;;-148.16;100.00;58328.31;5017250;28;20096;-52
2022/03/23 09:08:10;;;;;;;11.30;6.20;;;;;;;-148.16;100.00;58328.31;5050765;28;20516;-61
2022/03/23 09:10:55;;;;;;;10.38;6.05;;;;;;;-148.16;100.00;58328.31;5077306;28;20412;-61
2022/03/23 09:13:40;;;;;;;9.10;5.43;;;;;;;-148.16;100.00;58328.31;5049264;28;20048;-64
2022/03/23 09:16:25;;;;;;;11.02;6.30;;;;;;;-148.16;100.00;58328.31;5049535;28;20482;-60
2022/03/23 09:19:12;;;;;;;11.15;5.70;;;;;;;-148.16;100.00;58328.31;5050679;28;20069;-62
2022/03/23 09:21:59;;;;;;;10.10;5.65;;;;;;;-148.16;100.00;58328.31;5063277;28;20048;-61
2022/03/23 09:24:44;;;;;;;9.48;5.30;;;;;;;-148.16;100.00;58328.31;5049416;28;20064;-61
2022/03/23 09:27:29;;;;;;;11.73;5.95;;;;;;;-148.16;100.00;58328.31;5049706;28;20450;-60
2022/03/23 09:30:16;;;;;;;12.88;7.75;;;;;;;-148.16;100.00;58328.31;5050786;28;20045;-61
2022/03/23 09:33:01;;;;;;;10.13;6.18;;;;;;;-148.16;100.00;58328.31;5049128;28;20047;-60
2022/03/23 09:35:47;;;;;;;9.77;5.38;;;;;;;-148.16;100.00;58328.31;5063468;28;20049;-60
2022/03/23 09:38:34;;;;;;;8.32;5.25;;;;;;;-148.16;100.00;58328.31;5050712;28;20052;-62
2022/03/23 09:41:19;;;;;;;10.35;5.20;;;;;;;-148.16;100.00;58328.31;5050737;28;20056;-61
2022/03/23 09:44:05;;;;;;;9.25;5.15;;;;;;;-148.16;100.00;58328.31;5035589;28;20052;-60
2022/03/23 09:46:52;;;;;;;8.48;5.15;;;;;;;-148.16;100.00;58328.31;5050362;28;20052;-60
2022/03/23 09:49:37;;;;;;;10.73;5.32;;;;;;;-148.16;100.00;58328.31;5063175;28;20048;-60
2022/03/23 09:52:23;;;;;;;9.43;5.38;;;;;;;-148.16;100.00;58328.31;5049162;28;20045;-61
2022/03/23 09:55:08;;;;;;;9.32;5.25;;;;;;;-148.16;100.00;58328.31;5050154;28;20037;-60
2022/03/23 09:57:58;;;;;;;11.15;5.68;;;;;;;-148.16;100.00;58328.31;5077297;28;20040;-61
2022/03/23 10:00:44;;;;;;;11.23;5.22;;;;;;;-148.16;100.00;58328.31;5049059;28;20107;-66
2022/03/23 10:03:45;;;;;;;11.02;5.82;;;;;;;-148.16;100.00;58328.31;5064328;28;20381;-61
2022/03/23 10:06:52;;;;;;;7.30;5.00;;;;;;;-148.16;100.00;58328.31;5032863;28;20124;-61
2022/03/23 10:09:40;;;;;;;8.50;5.00;;;;;;;-148.16;100.00;58328.31;5032908;28;20045;-61
2022/03/23 10:12:36;;;;;;;8.23;4.63;;;;;;;-148.16;100.00;58328.31;5032876;28;20137;-60
2022/03/23 10:16:00;;;;;;;11.35;5.25;;;;;;;-148.16;100.00;58328.31;5023620;28;20099;-61
2022/03/23 10:18:59;;;;;;;10.25;5.38;;;;;;;-148.16;100.00;58328.31;5033009;28;20096;-59
2022/03/23 10:21:44;;;;;;;8.60;5.55;;;;;;;-148.16;100.00;58328.31;5012533;28;20489;-63
2022/03/23 10:24:30;;;;;;;12.10;5.32;;;;;;;-148.16;100.00;58328.31;4998808;28;20050;-59
2022/03/23 10:27:22;;;;;;;9.50;5.30;;;;;;;-148.16;100.00;58328.31;5028221;28;20049;-61
2022/03/23 10:30:08;;;;;;;9.35;5.32;;;;;;;-148.16;100.00;58328.31;5038361;28;20137;-59
2022/03/23 10:32:54;;;;;;;10.93;5.57;;;;;;;-148.16;100.00;58328.31;5049866;28;20045;-59
2022/03/23 10:35:40;;;;;;;10.57;5.80;;;;;;;-148.16;100.00;58328.31;5065843;28;20045;-59
2022/03/23 10:38:26;;;;;;;12.38;5.50;;;;;;;-148.16;100.00;58328.31;5038067;28;20096;-60
2022/03/23 10:41:11;;;;;;;10.88;5.80;;;;;;;-148.16;100.00;58328.31;5040460;28;20042;-60
2022/03/23 10:43:57;;;;;;;10.90;5.60;;;;;;;-148.16;100.00;58328.31;5013321;28;20406;-59
2022/03/23 10:46:43;;;;;;;8.75;5.72;;;;;;;-148.16;100.00;58328.31;5013133;28;20052;-60
2022/03/23 10:49:33;;;;;;;12.10;5.88;;;;;;;-148.16;100.00;58328.31;5013372;28;20504;-58
2022/03/23 10:52:19;;;;;;;10.45;6.30;;;;;;;-148.16;100.00;58328.31;5012230;28;20050;-60
2022/03/23 10:55:06;;;;;;;11.00;5.80;;;;;;;-148.16;100.00;58328.31;5013092;28;20084;-61
2022/03/23 10:57:51;;;;;;;11.77;6.80;;;;;;;-148.16;100.00;58328.31;5013081;28;20493;-60
2022/03/23 11:00:39;;;;;;;9.82;5.82;;;;;;;-148.16;100.00;58328.31;5012906;28;20394;-62
2022/03/23 11:03:47;;;;;;;11.15;6.28;;;;;;;-148.16;100.00;58328.31;5027536;28;20050;-60
2022/03/23 11:06:43;;;;;;;13.02;6.43;;;;;;;-148.16;100.00;58328.31;5033121;28;20111;-63
2022/03/23 11:16:05;;;;;;;13.68;6.95;;;;;;;-148.16;100.00;58328.31;5012606;28;20052;-59
2022/03/23 11:19:20;;;;;;;10.52;6.13;;;;;;;-148.16;100.00;58328.31;5025495;28;20136;-61
2022/03/23 11:22:11;;;;;;;12.93;6.60;;;;;;;-148.16;100.00;58328.31;5025627;28;20042;-60
2022/03/23 11:24:58;;;;;;;11.88;7.05;;;;;;;-148.16;100.00;58328.31;5025652;28;20500;-60
2022/03/23 11:27:43;;;;;;;10.45;7.43;;;;;;;-148.16;100.00;58328.31;5039172;28;20064;-59
2022/03/23 11:30:31;;;;;;;11.32;7.78;;;;;;;-148.16;100.00;58328.31;5038207;28;20100;-59
2022/03/23 11:33:21;;;;;;;9.73;6.80;;;;;;;-148.16;100.00;58328.31;5011569;28;20120;-60
2022/03/23 11:36:11;;;;;;;8.85;5.78;;;;;;;-148.16;100.00;58328.31;5010403;28;20049;-60
2022/03/23 11:38:59;;;;;;;11.70;6.15;;;;;;;-148.16;100.00;58328.31;5011035;28;20405;-60
2022/03/23 11:41:46;;;;;;;11.13;6.05;;;;;;;-148.16;100.00;58328.31;5011466;28;20042;-62
2022/03/23 11:44:31;;;;;;;11.23;6.20;;;;;;;-148.16;100.00;58328.31;5027409;28;20054;-61
2022/03/23 11:47:19;;;;;;;14.93;6.53;;;;;;;-148.16;100.00;58328.31;5012653;28;20505;-61
2022/03/23 11:50:25;;;;;;;11.23;6.68;;;;;;;-148.16;100.00;58328.31;5012575;28;20433;-61
2022/03/23 11:53:26;;;;;;;14.15;8.80;;;;;;;-148.16;100.00;58328.31;5038951;28;20386;-60
2022/03/23 11:56:21;;;;;;;11.80;6.68;;;;;;;-148.16;100.00;58328.31;5025179;28;20060;-61
2022/03/23 11:59:29;;;;;;;11.07;6.57;;;;;;;-148.16;100.00;58328.31;5024737;28;20046;-60
2022/03/23 12:02:18;;;;;;;10.75;6.97;;;;;;;-148.16;100.00;58328.31;5017134;28;20052;-60
2022/03/23 12:05:27;;;;;;;10.05;6.05;;;;;;;-148.16;100.00;58328.31;5031653;28;20041;-59
2022/03/23 12:08:14;;;;;;;10.48;6.68;;;;;;;-148.16;100.00;58328.31;5031705;28;20052;-60
2022/03/23 12:11:03;;;;;;;11.05;6.75;;;;;;;-148.16;100.00;58328.31;5016283;28;20488;-60
2022/03/23 12:13:57;;;;;;;12.43;7.30;;;;;;;-148.16;100.00;58328.31;5031343;28;20060;-63
2022/03/23 12:16:51;;;;;;;12.20;6.38;;;;;;;-148.16;100.00;58328.31;5044493;28;20050;-62
2022/03/23 12:19:58;;;;;;;11.02;6.82;;;;;;;-148.16;100.00;58328.31;5030323;28;20060;-60
2022/03/23 12:22:54;;;;;;;10.07;6.97;;;;;;;-148.16;100.00;58328.31;5031445;28;20041;-62
2022/03/23 12:26:01;;;;;;;11.27;7.28;;;;;;;-148.16;100.00;58328.31;5016746;28;20104;-59
2022/03/23 12:28:54;;;;;;;15.00;7.38;;;;;;;-148.16;100.00;58328.31;5031186;28;20481;-61
2022/03/23 12:31:40;;;;;;;11.45;6.60;;;;;;;-148.16;100.00;58328.31;5031498;28;20037;-61
2022/03/23 12:34:27;;;;;;;10.75;7.47;;;;;;;-148.16;100.00;58328.31;5031392;28;20401;-59
2022/03/23 12:37:15;;;;;;;11.10;7.28;;;;;;;-148.16;100.00;58328.31;5031036;28;20099;-60
2022/03/23 12:40:07;;;;;;;12.35;7.55;;;;;;;-148.16;100.00;58328.31;5030366;28;20042;-59
2022/03/23 12:42:52;;;;;;;11.95;7.13;;;;;;;-148.16;100.00;58328.31;5031070;28;20052;-61
2022/03/23 12:45:40;;;;;;;10.73;7.00;;;;;;;-148.16;100.00;58328.31;5031639;28;20045;-61
2022/03/23 12:57:53;;;;;;;13.88;6.63;;;;;;;-148.16;100.00;58328.31;5030861;28;20041;-63